Time;durP1;ratioP1;P1;durP2;ratioP2;P2;SDS_P1;SDS_P2;PMS_P1;PMS_P2;Temp;Humidity;BMP_temperature;BMP_pressure;BME280_temperature;BME280_humidity;BME280_pressure;Samples;Min_cycle;Max_cycle;Signal;HPM_P1;HPM_P2
2021/05/24 00:00:33;;;;;;;3.95;1.82;;;;;;;18.90;49.08;100533.16;1781578;80;20997;-72
2021/05/24 00:02:59;;;;;;;5.53;1.67;;;;;;;18.94;49.00;100527.08;1781553;80;21039;-72
2021/05/24 00:05:30;;;;;;;4.55;1.80;;;;;;;18.96;48.59;100532.25;1781548;80;20932;-72
2021/05/24 00:07:57;;;;;;;4.15;1.57;;;;;;;18.98;48.44;100530.14;1781558;80;20928;-72
2021/05/24 00:10:27;;;;;;;4.65;1.98;;;;;;;19.02;48.35;100528.10;1781793;80;21027;-72
2021/05/24 00:12:56;;;;;;;6.47;1.70;;;;;;;19.06;48.31;100525.77;1781614;80;20984;-72
2021/05/24 00:15:25;;;;;;;3.90;1.62;;;;;;;19.07;48.15;100520.68;1781483;80;21552;-71
2021/05/24 00:17:53;;;;;;;3.08;1.60;;;;;;;19.07;48.29;100516.64;1781664;80;21067;-71
2021/05/24 00:20:29;;;;;;;3.12;1.75;;;;;;;19.06;48.38;100518.51;1781621;80;21087;-69
2021/05/24 00:22:57;;;;;;;2.95;1.65;;;;;;;19.07;48.46;100515.30;1781516;80;20924;-68
2021/05/24 00:25:26;;;;;;;2.47;1.60;;;;;;;19.06;48.58;100504.21;1781469;80;20984;-69
2021/05/24 00:27:53;;;;;;;5.62;1.75;;;;;;;19.04;48.63;100503.08;1781656;80;21043;-72
2021/05/24 00:30:22;;;;;;;4.55;1.80;;;;;;;19.07;48.68;100505.86;1781410;80;21520;-72
2021/05/24 00:32:49;;;;;;;5.85;1.67;;;;;;;19.07;48.59;100508.00;1781559;80;20972;-73
2021/05/24 00:35:16;;;;;;;3.33;1.60;;;;;;;19.06;48.53;100501.52;1781585;80;21083;-72
2021/05/24 00:37:42;;;;;;;3.47;1.60;;;;;;;19.06;48.61;100503.69;1781523;80;20912;-73
2021/05/24 00:40:09;;;;;;;9.68;1.85;;;;;;;19.07;48.63;100506.66;1751149;80;20968;-70
2021/05/24 00:42:36;;;;;;;4.30;2.15;;;;;;;19.08;48.72;100512.88;1781747;80;21016;-72
2021/05/24 00:45:05;;;;;;;4.20;2.02;;;;;;;19.09;48.81;100544.16;1781623;80;21035;-71
2021/05/24 00:47:32;;;;;;;6.55;3.02;;;;;;;19.03;48.87;100576.08;1781534;80;21134;-74
2021/05/24 00:49:58;;;;;;;5.72;3.27;;;;;;;18.81;48.19;100580.34;1781448;80;20888;-75
2021/05/24 00:52:26;;;;;;;7.72;3.33;;;;;;;18.59;48.10;100583.50;1781592;80;20950;-72
2021/05/24 00:54:53;;;;;;;10.35;3.40;;;;;;;18.47;47.54;100585.82;1781548;80;21596;-70
2021/05/24 00:57:19;;;;;;;9.55;3.47;;;;;;;18.31;46.85;100593.97;1781487;80;21556;-71
2021/05/24 00:59:46;;;;;;;7.70;3.37;;;;;;;18.19;46.95;100611.90;1781672;80;21600;-70
2021/05/24 01:02:12;;;;;;;4.60;2.90;;;;;;;18.09;47.38;100621.02;1781656;80;21634;-70
2021/05/24 01:04:39;;;;;;;8.23;3.40;;;;;;;17.98;47.22;100621.72;1781121;80;21079;-71
2021/05/24 01:07:06;;;;;;;5.50;3.33;;;;;;;17.88;47.43;100630.30;1781672;80;21090;-71
2021/05/24 01:09:33;;;;;;;14.28;3.20;;;;;;;17.81;47.85;100626.85;1751508;80;21035;-73
2021/05/24 01:12:00;;;;;;;6.72;2.60;;;;;;;17.74;48.75;100634.98;1781593;80;21071;-73
2021/05/24 01:14:27;;;;;;;5.53;2.60;;;;;;;17.66;49.13;100649.21;1781629;80;21099;-73
2021/05/24 01:16:55;;;;;;;5.60;2.50;;;;;;;17.54;49.36;100650.92;1781666;80;20920;-72
2021/05/24 01:19:23;;;;;;;4.15;2.27;;;;;;;17.43;51.33;100649.76;1782081;80;20967;-72
2021/05/24 01:21:50;;;;;;;4.60;2.20;;;;;;;17.34;52.35;100656.42;1751134;80;21504;-72
2021/05/24 01:24:18;;;;;;;5.25;2.52;;;;;;;17.28;53.87;100660.81;1781787;80;21644;-73
2021/05/24 01:26:45;;;;;;;4.67;2.42;;;;;;;17.14;55.31;100664.63;1781648;80;21015;-74
2021/05/24 01:29:12;;;;;;;6.67;2.60;;;;;;;17.00;55.50;100663.53;1781823;80;21063;-74
2021/05/24 01:31:38;;;;;;;6.03;2.25;;;;;;;16.90;55.54;100663.18;1751394;80;21014;-75
2021/05/24 01:34:05;;;;;;;4.25;2.30;;;;;;;16.85;56.23;100668.67;1781906;80;21074;-75
2021/05/24 01:36:32;;;;;;;7.58;2.87;;;;;;;16.81;56.42;100666.61;1781723;80;21050;-75
2021/05/24 01:38:58;;;;;;;5.45;2.30;;;;;;;16.77;57.09;100668.91;1781744;80;20993;-75
2021/05/24 01:41:24;;;;;;;7.20;2.55;;;;;;;16.73;58.03;100662.85;1781717;80;21079;-75
2021/05/24 01:43:51;;;;;;;7.15;2.42;;;;;;;16.67;58.22;100663.17;1781755;80;21020;-75
2021/05/24 01:46:17;;;;;;;4.78;2.67;;;;;;;16.62;58.83;100662.97;1781682;80;20965;-76
2021/05/24 01:48:44;;;;;;;6.30;2.40;;;;;;;16.57;59.73;100651.23;1781772;80;21839;-76
2021/05/24 01:51:11;;;;;;;7.65;2.50;;;;;;;16.52;60.21;100643.78;1781964;80;21011;-76
2021/05/24 01:53:37;;;;;;;5.85;2.70;;;;;;;16.48;60.82;100635.84;1781689;80;20956;-76
2021/05/24 01:56:05;;;;;;;7.60;3.05;;;;;;;16.42;61.71;100623.80;1781579;80;21194;-71
2021/05/24 01:58:32;;;;;;;5.08;2.80;;;;;;;16.36;63.18;100625.45;1781692;80;21050;-72
2021/05/24 02:01:08;;;;;;;4.75;2.40;;;;;;;16.31;64.07;100617.22;1781661;80;21803;-72
2021/05/24 02:03:36;;;;;;;4.55;2.67;;;;;;;16.28;64.40;100606.89;1781651;80;20991;-72
2021/05/24 02:06:03;;;;;;;4.22;2.27;;;;;;;16.25;64.60;100601.95;1781758;80;20983;-72
2021/05/24 02:08:32;;;;;;;4.40;2.60;;;;;;;16.23;64.27;100604.03;1781696;80;21051;-71
2021/05/24 02:11:00;;;;;;;4.40;2.40;;;;;;;16.20;64.25;100599.89;1781814;80;21059;-74
2021/05/24 02:13:28;;;;;;;5.92;2.55;;;;;;;16.20;64.41;100604.46;1781772;80;21722;-73
2021/05/24 02:15:56;;;;;;;4.58;2.40;;;;;;;16.20;64.66;100608.48;1781534;80;20987;-72
2021/05/24 02:18:22;;;;;;;4.58;2.42;;;;;;;16.19;64.99;100609.51;1781711;80;21047;-73
2021/05/24 02:20:49;;;;;;;5.62;2.75;;;;;;;16.16;65.03;100617.98;1751217;80;21103;-72
2021/05/24 02:23:16;;;;;;;5.05;2.50;;;;;;;16.14;65.32;100613.33;1781918;80;21051;-72
2021/05/24 02:25:44;;;;;;;3.60;2.30;;;;;;;16.12;65.61;100618.09;1781586;80;21155;-69
2021/05/24 02:28:10;;;;;;;4.85;2.50;;;;;;;16.10;65.70;100616.95;1781731;80;20995;-72
2021/05/24 02:30:38;;;;;;;6.58;2.90;;;;;;;16.09;65.90;100621.99;1781768;80;21040;-71
2021/05/24 02:33:05;;;;;;;6.75;2.72;;;;;;;16.08;66.09;100634.29;1781742;80;21024;-71
2021/05/24 02:35:32;;;;;;;6.35;3.00;;;;;;;16.06;66.29;100632.31;1781659;80;21313;-71
2021/05/24 02:37:58;;;;;;;5.25;2.50;;;;;;;16.01;66.52;100634.30;1781719;80;21002;-70
2021/05/24 02:40:25;;;;;;;7.00;3.25;;;;;;;15.98;66.85;100607.88;1781517;80;21059;-71
2021/05/24 02:42:52;;;;;;;6.90;3.20;;;;;;;15.96;67.44;100607.28;1781740;80;21548;-71
2021/05/24 02:45:19;;;;;;;6.90;3.52;;;;;;;15.92;67.96;100591.30;1781830;80;21071;-71
2021/05/24 02:47:46;;;;;;;9.30;4.17;;;;;;;15.86;68.42;100598.30;1781665;80;21060;-72
2021/05/24 02:50:18;;;;;;;8.98;3.40;;;;;;;15.82;69.16;100589.03;1781553;80;20928;-71
2021/05/24 02:52:45;;;;;;;7.25;3.08;;;;;;;15.81;69.71;100569.98;1781531;80;20920;-71
2021/05/24 02:55:12;;;;;;;6.40;2.60;;;;;;;15.82;69.93;100560.88;1781625;80;21052;-71
2021/05/24 02:57:39;;;;;;;8.40;3.40;;;;;;;15.82;70.52;100567.58;1781727;80;20947;-72
2021/05/24 03:00:11;;;;;;;4.58;2.20;;;;;;;15.82;70.95;100562.22;1781704;80;20976;-72
2021/05/24 03:02:45;;;;;;;7.62;2.22;;;;;;;15.81;70.87;100569.98;1781707;80;21106;-72
2021/05/24 03:05:09;;;;;;;5.50;2.37;;;;;;;15.79;70.50;100590.79;1780787;80;21058;-72
2021/05/24 03:07:35;;;;;;;7.65;2.10;;;;;;;15.76;70.22;100615.34;1781662;80;21599;-71
2021/05/24 03:10:02;;;;;;;5.45;2.50;;;;;;;15.74;70.48;100616.08;1781726;80;21099;-72
2021/05/24 03:12:29;;;;;;;9.28;2.40;;;;;;;15.73;70.61;100590.80;1781731;80;21034;-72
2021/05/24 03:14:55;;;;;;;6.90;3.00;;;;;;;15.74;71.23;100566.48;1781614;80;21075;-72
2021/05/24 03:17:22;;;;;;;4.95;2.67;;;;;;;15.73;71.65;100556.78;1786207;79;21629;-47
2021/05/24 03:19:49;;;;;;;8.03;2.30;;;;;;;15.69;71.72;100530.09;1784883;79;21381;-54
2021/05/24 03:22:15;;;;;;;6.20;2.30;;;;;;;16.04;71.64;100508.35;1782959;80;21081;-55
2021/05/24 03:24:42;;;;;;;6.33;2.50;;;;;;;16.76;70.46;100511.55;1781713;79;21042;-54
2021/05/24 03:27:08;;;;;;;7.10;2.83;;;;;;;17.51;68.72;100504.87;1813437;78;21025;-55
2021/05/24 03:29:35;;;;;;;4.62;2.55;;;;;;;18.15;66.62;100503.06;1794440;78;21035;-55
2021/05/24 03:32:01;;;;;;;7.58;2.50;;;;;;;18.69;64.60;100498.15;1781362;80;20988;-55
2021/05/24 03:34:27;;;;;;;5.03;2.42;;;;;;;19.17;62.81;100489.94;1781170;80;20995;-55
2021/05/24 03:36:54;;;;;;;5.53;2.60;;;;;;;19.56;61.19;100493.31;1780743;80;21043;-55
2021/05/24 03:39:20;;;;;;;5.60;2.87;;;;;;;19.89;59.73;100495.94;1781317;80;21869;-55
2021/05/24 03:41:48;;;;;;;7.25;2.98;;;;;;;20.14;58.45;100489.71;1781202;80;20900;-55
2021/05/24 03:44:14;;;;;;;6.25;2.83;;;;;;;20.35;57.46;100483.70;1781360;80;21039;-55
2021/05/24 03:46:43;;;;;;;5.92;2.42;;;;;;;20.55;56.56;100485.95;1781214;80;21126;-50
2021/05/24 03:49:09;;;;;;;5.78;2.70;;;;;;;20.71;55.72;100484.36;1781176;80;21484;-50
2021/05/24 03:51:35;;;;;;;5.00;2.42;;;;;;;20.86;55.05;100477.34;1781323;80;21074;-55
2021/05/24 03:54:03;;;;;;;8.15;2.35;;;;;;;20.97;54.58;100474.28;1781340;80;20960;-59
2021/05/24 03:56:29;;;;;;;8.18;2.27;;;;;;;21.08;54.06;100463.92;1780369;79;21098;-55
2021/05/24 03:58:56;;;;;;;12.35;2.80;;;;;;;21.18;53.69;100464.66;1812730;78;21062;-56
2021/05/24 04:01:22;;;;;;;7.85;2.55;;;;;;;21.26;53.40;100460.20;1794584;78;21037;-56
2021/05/24 04:03:51;;;;;;;5.92;2.83;;;;;;;21.33;53.04;100458.96;1787847;78;21180;-49
2021/05/24 04:06:18;;;;;;;5.92;2.27;;;;;;;21.40;52.91;100456.90;1787421;78;20922;-48
2021/05/24 04:08:47;;;;;;;9.05;2.77;;;;;;;21.45;52.64;100459.66;1786889;80;21045;-48
2021/05/24 04:11:14;;;;;;;11.08;2.62;;;;;;;21.51;52.34;100455.16;1786866;80;21079;-48
2021/05/24 04:13:47;;;;;;;7.78;2.37;;;;;;;21.54;52.15;100450.59;1816000;78;21005;-48
2021/05/24 04:16:10;;;;;;;6.12;2.45;;;;;;;21.60;51.96;100446.34;1818443;78;21657;-48
2021/05/24 04:18:41;;;;;;;7.90;2.25;;;;;;;21.60;51.96;100446.34;1806751;78;21085;-47
2021/05/24 04:21:07;;;;;;;6.37;2.30;;;;;;;21.60;51.71;100451.76;1799611;78;21030;-48
2021/05/24 04:23:33;;;;;;;4.85;2.30;;;;;;;21.63;51.68;100457.76;1786850;80;21096;-48
2021/05/24 04:25:59;;;;;;;4.67;2.30;;;;;;;21.66;51.51;100457.25;1786807;80;20938;-48
2021/05/24 04:28:26;;;;;;;6.80;2.15;;;;;;;21.70;51.44;100450.27;1786870;80;21096;-48
2021/05/24 04:30:52;;;;;;;4.15;2.05;;;;;;;21.70;51.44;100450.27;1788081;78;21122;-48
2021/05/24 04:33:19;;;;;;;9.45;2.20;;;;;;;21.73;51.41;100454.65;1803620;78;21023;-48
2021/05/24 04:35:45;;;;;;;8.58;2.62;;;;;;;21.75;51.36;100451.70;1787171;78;21047;-48
2021/05/24 04:38:12;;;;;;;7.25;2.02;;;;;;;21.76;51.32;100450.61;1794482;78;20994;-47
2021/05/24 04:40:38;;;;;;;5.35;2.30;;;;;;;21.73;51.32;100458.70;1788512;79;21072;-47
2021/05/24 04:43:05;;;;;;;6.78;2.45;;;;;;;21.73;51.32;100458.70;1801276;78;21047;-48
2021/05/24 04:45:31;;;;;;;7.22;1.92;;;;;;;21.72;51.40;100458.41;1787061;78;20983;-49
2021/05/24 04:48:00;;;;;;;6.37;2.30;;;;;;;21.74;51.43;100466.30;1786739;80;20925;-54
2021/05/24 04:50:27;;;;;;;6.22;2.30;;;;;;;21.75;51.36;100456.59;1790145;78;21053;-49
2021/05/24 04:52:53;;;;;;;7.10;2.62;;;;;;;21.76;51.26;100455.50;1819125;78;21667;-50
2021/05/24 04:55:20;;;;;;;4.40;2.10;;;;;;;21.73;51.36;100457.36;1810969;78;21503;-50
2021/05/24 04:57:47;;;;;;;4.92;2.10;;;;;;;21.73;51.36;100457.36;1786622;80;20907;-50
2021/05/24 05:00:15;;;;;;;4.70;2.20;;;;;;;21.68;51.05;100461.89;1786710;80;20978;-50
2021/05/24 05:02:42;;;;;;;4.60;2.17;;;;;;;21.68;51.05;100461.89;1786820;80;20859;-49
2021/05/24 05:05:09;;;;;;;17.70;2.35;;;;;;;21.70;51.14;100467.86;1786634;80;21145;-50
2021/05/24 05:07:36;;;;;;;3.87;2.08;;;;;;;21.65;51.31;100449.66;1786679;80;21042;-49
2021/05/24 05:10:04;;;;;;;6.42;1.87;;;;;;;21.65;51.31;100449.66;1788927;78;21050;-49
2021/05/24 05:12:31;;;;;;;5.55;1.98;;;;;;;21.65;51.32;100444.78;1786721;79;21025;-50
2021/05/24 05:14:59;;;;;;;4.33;1.85;;;;;;;21.64;51.29;100446.67;1786853;80;20982;-50
2021/05/24 05:17:26;;;;;;;3.85;2.00;;;;;;;21.63;51.29;100450.47;1786632;80;21081;-49
2021/05/24 05:19:52;;;;;;;5.17;1.90;;;;;;;21.68;51.11;100450.52;1787078;78;21594;-56
2021/05/24 05:22:21;;;;;;;8.70;3.05;;;;;;;21.68;51.11;100450.52;1781202;80;20967;-49
2021/05/24 05:24:47;;;;;;;6.85;3.83;;;;;;;21.74;51.70;100467.12;1786336;78;20992;-48
2021/05/24 05:27:14;;;;;;;10.65;2.85;;;;;;;21.84;52.30;100467.24;1786711;79;21232;-48
2021/05/24 05:29:42;;;;;;;4.33;2.10;;;;;;;21.98;52.23;100467.73;1787718;78;21086;-48
2021/05/24 05:32:08;;;;;;;6.33;2.00;;;;;;;22.07;51.69;100476.51;1789504;79;20967;-48
2021/05/24 05:34:35;;;;;;;5.65;2.65;;;;;;;22.16;51.25;100490.43;1789530;79;21061;-48
2021/05/24 05:37:01;;;;;;;5.35;1.92;;;;;;;22.26;50.91;100485.66;1789612;80;21463;-48
2021/05/24 05:39:28;;;;;;;4.50;2.10;;;;;;;22.32;50.66;100492.78;1789519;79;21448;-48
2021/05/24 05:41:54;;;;;;;5.22;2.10;;;;;;;22.37;50.39;100486.88;1789449;80;21082;-48
2021/05/24 05:44:21;;;;;;;3.77;1.95;;;;;;;22.42;50.12;100476.11;1789373;80;20996;-48
2021/05/24 05:46:47;;;;;;;5.42;2.30;;;;;;;22.47;49.89;100478.85;1789542;79;20887;-48
2021/05/24 05:49:14;;;;;;;6.20;2.55;;;;;;;22.52;49.64;100485.69;1789598;78;21054;-48
2021/05/24 05:51:40;;;;;;;7.40;1.95;;;;;;;22.56;49.43;100485.99;1786897;80;20994;-48
2021/05/24 05:54:06;;;;;;;3.67;2.00;;;;;;;22.60;49.28;100482.23;1786564;80;21071;-48
2021/05/24 05:56:33;;;;;;;4.58;2.05;;;;;;;22.62;49.08;100484.17;1786654;80;21005;-49
2021/05/24 05:58:59;;;;;;;4.80;1.90;;;;;;;22.65;48.85;100479.05;1785800;80;20983;-49
2021/05/24 06:01:26;;;;;;;3.80;2.17;;;;;;;22.68;48.68;100476.39;1786462;80;21040;-49
2021/05/24 06:03:52;;;;;;;4.08;2.02;;;;;;;22.70;48.46;100460.71;1786626;80;21048;-49
2021/05/24 06:06:19;;;;;;;4.72;2.20;;;;;;;22.72;48.32;100463.97;1784561;79;21156;-48
2021/05/24 06:08:45;;;;;;;9.68;2.22;;;;;;;22.73;48.29;100457.48;1781210;80;21518;-48
2021/05/24 06:11:12;;;;;;;4.95;2.25;;;;;;;22.75;48.18;100453.97;1781559;80;21385;-48
2021/05/24 06:13:39;;;;;;;3.62;2.20;;;;;;;22.76;48.13;100453.72;1781464;80;21014;-48
2021/05/24 06:16:06;;;;;;;4.78;1.92;;;;;;;22.77;48.09;100445.06;1781236;80;20978;-48
2021/05/24 06:18:33;;;;;;;3.92;2.02;;;;;;;22.79;48.06;100444.25;1784116;79;21076;-48
2021/05/24 06:21:00;;;;;;;5.08;2.08;;;;;;;22.81;47.96;100440.76;1781923;79;21480;-48
2021/05/24 06:23:26;;;;;;;4.47;2.00;;;;;;;22.80;47.91;100435.88;1781143;79;21062;-49
2021/05/24 06:25:53;;;;;;;3.50;2.08;;;;;;;22.82;47.83;100420.69;1785083;80;21084;-48
2021/05/24 06:28:19;;;;;;;5.25;1.95;;;;;;;22.83;47.77;100422.33;1786244;79;21014;-48
2021/05/24 06:30:45;;;;;;;7.80;2.62;;;;;;;22.82;47.73;100422.86;1783925;80;21034;-48
2021/05/24 06:33:13;;;;;;;5.92;2.72;;;;;;;22.83;47.68;100421.80;1786640;78;21038;-48
2021/05/24 06:35:40;;;;;;;3.72;2.35;;;;;;;22.85;47.68;100421.55;1786539;80;20955;-48
2021/05/24 06:38:06;;;;;;;4.20;2.45;;;;;;;22.85;47.63;100426.41;1786746;79;21078;-48
2021/05/24 06:40:33;;;;;;;4.00;2.05;;;;;;;22.86;47.55;100420.45;1788164;79;21027;-48
2021/05/24 06:42:59;;;;;;;3.98;1.72;;;;;;;22.86;47.50;100433.47;1804446;78;21086;-48
2021/05/24 06:45:27;;;;;;;3.85;1.90;;;;;;;22.86;47.54;100431.30;1780308;80;20995;-48
2021/05/24 06:47:54;;;;;;;5.53;2.60;;;;;;;22.87;47.45;100450.55;1779537;80;21035;-48
2021/05/24 06:50:20;;;;;;;3.02;1.80;;;;;;;22.87;47.42;100468.17;1809878;79;21041;-48
2021/05/24 06:52:47;;;;;;;5.87;2.20;;;;;;;22.89;47.35;100470.08;1813338;79;21030;-48
2021/05/24 06:55:15;;;;;;;4.72;2.05;;;;;;;22.89;47.31;100464.66;1813278;78;20967;-48
2021/05/24 06:57:44;;;;;;;5.53;2.40;;;;;;;22.90;47.29;100457.63;1813202;78;21589;-48
2021/05/24 07:00:17;;;;;;;5.17;1.98;;;;;;;22.91;47.29;100446.25;1813400;78;21468;-48
2021/05/24 07:02:47;;;;;;;4.70;2.02;;;;;;;22.91;47.38;100448.44;1781266;79;20974;-48
2021/05/24 07:05:13;;;;;;;4.08;2.00;;;;;;;22.92;47.40;100472.30;1781509;79;21437;-48
2021/05/24 07:07:40;;;;;;;3.72;1.90;;;;;;;22.92;47.43;100472.30;1781488;79;21079;-48
2021/05/24 07:10:08;;;;;;;3.80;2.05;;;;;;;22.91;47.40;100474.19;1785809;79;21018;-48
2021/05/24 07:12:35;;;;;;;3.55;1.90;;;;;;;22.93;47.41;100479.33;1796361;79;21065;-48
2021/05/24 07:15:03;;;;;;;4.22;2.30;;;;;;;22.94;47.49;100474.20;1796919;79;20996;-48
2021/05/24 07:17:30;;;;;;;5.53;3.12;;;;;;;22.94;47.48;100470.13;1794213;79;21431;-47
2021/05/24 07:19:57;;;;;;;6.65;3.72;;;;;;;22.95;47.48;100473.12;1793412;79;21867;-47
2021/05/24 07:22:23;;;;;;;9.30;3.87;;;;;;;22.95;47.53;100462.28;1790949;79;21573;-47
2021/05/24 07:24:51;;;;;;;6.97;4.17;;;;;;;22.95;47.57;100458.22;1783869;80;21499;-48
2021/05/24 07:27:20;;;;;;;6.45;3.52;;;;;;;22.95;47.69;100454.98;1751385;80;20916;-48
2021/05/24 07:29:48;;;;;;;7.50;4.17;;;;;;;22.97;47.76;100465.55;1781321;80;21000;-47
2021/05/24 07:32:15;;;;;;;7.72;3.33;;;;;;;22.96;47.89;100461.22;1776275;80;21090;-48
2021/05/24 07:34:43;;;;;;;5.40;3.20;;;;;;;22.95;47.92;100467.17;1781128;80;21475;-48
2021/05/24 07:37:09;;;;;;;6.97;3.25;;;;;;;22.96;47.95;100468.00;1781306;80;20945;-48
2021/05/24 07:39:35;;;;;;;7.60;4.00;;;;;;;22.96;47.97;100470.70;1744072;82;20986;-48
2021/05/24 07:42:04;;;;;;;6.22;3.17;;;;;;;22.96;48.00;100478.27;1750271;80;21015;-47
2021/05/24 07:44:33;;;;;;;5.72;3.60;;;;;;;22.96;48.07;100469.35;1720861;83;21603;-47
2021/05/24 07:47:01;;;;;;;6.67;4.08;;;;;;;22.96;48.16;100449.02;1701515;82;21044;-47
2021/05/24 07:49:28;;;;;;;6.35;3.60;;;;;;;22.97;48.30;100447.92;1796500;79;21058;-48
2021/05/24 07:51:56;;;;;;;6.28;3.20;;;;;;;22.96;48.43;100438.97;1781109;79;21083;-47
2021/05/24 07:54:23;;;;;;;9.70;3.70;;;;;;;22.96;48.43;100443.03;1781211;80;21075;-47
2021/05/24 07:56:49;;;;;;;8.33;3.83;;;;;;;22.97;48.44;100443.32;1801236;79;21689;-47
2021/05/24 07:59:16;;;;;;;7.42;4.03;;;;;;;22.97;48.48;100439.79;1781125;80;21685;-48
2021/05/24 08:01:43;;;;;;;7.80;3.77;;;;;;;22.96;48.51;100440.32;1782087;80;21072;-48
2021/05/24 08:04:10;;;;;;;11.63;6.42;;;;;;;22.97;48.56;100439.25;1781365;80;21007;-46
2021/05/24 08:06:37;;;;;;;11.48;9.18;;;;;;;22.97;48.55;100439.25;1781237;80;21040;-47
2021/05/24 08:09:05;;;;;;;12.95;9.25;;;;;;;22.97;48.48;100441.14;1784471;80;21094;-47
2021/05/24 08:11:32;;;;;;;10.53;5.58;;;;;;;22.97;48.41;100443.85;1786429;79;21522;-47
2021/05/24 08:13:59;;;;;;;7.72;4.85;;;;;;;22.97;48.34;100445.21;1782810;79;21542;-47
2021/05/24 08:16:26;;;;;;;6.53;4.35;;;;;;;22.96;48.39;100447.66;1781062;80;20986;-48
2021/05/24 08:18:52;;;;;;;7.47;3.98;;;;;;;22.96;48.46;100443.59;1781160;80;21349;-48
2021/05/24 08:21:21;;;;;;;5.83;3.62;;;;;;;22.96;48.45;100444.39;1783525;80;21086;-51
2021/05/24 08:23:48;;;;;;;7.47;4.10;;;;;;;22.97;48.44;100456.05;1786311;79;21023;-49
2021/05/24 08:26:14;;;;;;;6.75;4.45;;;;;;;22.99;48.46;100462.05;1786457;80;21035;-49
2021/05/24 08:28:41;;;;;;;6.22;3.92;;;;;;;23.01;48.46;100457.17;1789405;79;21084;-46
2021/05/24 08:31:09;;;;;;;8.90;3.70;;;;;;;23.01;48.04;100462.59;1782358;79;21552;-47
2021/05/24 08:33:36;;;;;;;5.67;2.98;;;;;;;22.64;48.01;100463.86;1786255;78;21077;-48
2021/05/24 08:36:05;;;;;;;8.00;2.90;;;;;;;22.14;48.75;100468.72;1780993;80;21065;-48
2021/05/24 08:38:31;;;;;;;6.60;3.27;;;;;;;21.58;50.02;100472.84;1780157;80;20891;-47
2021/05/24 08:41:05;;;;;;;5.50;3.12;;;;;;;21.07;51.10;100473.11;1779690;80;21125;-48
2021/05/24 08:43:26;;;;;;;5.87;3.27;;;;;;;20.69;52.27;100479.22;1778572;80;21006;-47
2021/05/24 08:45:53;;;;;;;15.53;11.88;;;;;;;20.43;53.19;100477.11;1779679;80;21045;-47
2021/05/24 08:48:19;;;;;;;9.28;5.05;;;;;;;20.20;53.88;100474.72;1779621;80;21020;-49
2021/05/24 08:50:46;;;;;;;9.48;4.40;;;;;;;19.78;55.19;100487.33;1781686;79;21027;-49
2021/05/24 08:53:12;;;;;;;8.58;3.95;;;;;;;19.78;55.19;100487.33;1781132;80;21102;-48
2021/05/24 08:55:39;;;;;;;7.42;3.20;;;;;;;19.61;56.04;100489.39;1781364;80;21531;-51
2021/05/24 08:58:08;;;;;;;6.15;3.77;;;;;;;19.42;57.43;100485.69;1781224;80;21088;-51
2021/05/24 09:00:35;;;;;;;6.53;3.60;;;;;;;19.17;58.19;100494.80;1786162;80;21555;-51
2021/05/24 09:03:01;;;;;;;7.37;3.80;;;;;;;18.96;58.89;100485.11;1786514;78;20963;-51
2021/05/24 09:05:32;;;;;;;8.25;3.42;;;;;;;18.78;59.35;100492.71;1787150;78;21003;-51
2021/05/24 09:08:02;;;;;;;9.03;3.95;;;;;;;18.67;59.69;100489.45;1786723;80;21079;-51
2021/05/24 09:10:29;;;;;;;6.37;3.15;;;;;;;18.59;60.25;100496.51;1818863;78;21065;-51
2021/05/24 09:12:56;;;;;;;7.58;2.65;;;;;;;18.48;60.74;100491.87;1803911;78;21018;-51
2021/05/24 09:15:25;;;;;;;5.10;2.87;;;;;;;18.35;60.99;100495.58;1789090;80;21593;-51
2021/05/24 09:17:55;;;;;;;7.53;5.22;;;;;;;18.20;61.54;100501.33;1788046;80;20983;-51
2021/05/24 09:20:40;;;;;;;5.85;3.50;;;;;;;18.15;61.71;100501.72;1786716;80;20902;-51
2021/05/24 09:23:14;;;;;;;5.97;3.30;;;;;;;18.22;61.59;100500.59;1770542;80;21648;-49
2021/05/24 09:25:52;;;;;;;3.50;2.13;;;;;;;18.25;61.49;100504.69;1764566;81;21100;-50
2021/05/24 09:28:46;;;;;;;4.90;2.72;;;;;;;18.27;61.39;100511.52;1780286;80;21014;-50
2021/05/24 09:31:25;;;;;;;4.80;3.37;;;;;;;18.22;61.36;100517.26;1740247;81;21656;-51
2021/05/24 09:33:57;;;;;;;4.12;2.52;;;;;;;18.20;61.43;100517.47;1730691;82;21376;-51
2021/05/24 09:36:25;;;;;;;3.35;2.37;;;;;;;18.18;61.55;100514.72;1730587;82;21661;-50
2021/05/24 09:38:56;;;;;;;4.33;1.82;;;;;;;18.14;61.55;100526.45;1730792;82;20993;-50
2021/05/24 09:41:24;;;;;;;3.30;1.85;;;;;;;18.12;61.65;100528.56;1755667;81;21062;-50
2021/05/24 09:43:52;;;;;;;9.80;3.22;;;;;;;18.14;61.43;100526.45;1748702;81;20983;-50
2021/05/24 09:46:27;;;;;;;12.50;5.05;;;;;;;18.17;61.22;100535.42;1747007;82;21499;-51
2021/05/24 09:49:05;;;;;;;18.73;7.17;;;;;;;18.18;61.26;100537.59;1746912;82;21720;-50
2021/05/24 09:51:40;;;;;;;22.80;10.38;;;;;;;18.15;61.39;100540.73;1763482;81;21053;-50
2021/05/24 09:54:13;;;;;;;12.58;5.12;;;;;;;18.10;61.51;100534.67;1746033;81;20985;-55
2021/05/24 09:56:45;;;;;;;11.48;4.67;;;;;;;18.12;61.47;100530.43;1733987;82;21029;-54
2021/05/24 09:59:18;;;;;;;13.88;4.97;;;;;;;18.20;61.23;100529.58;1731466;82;20982;-54
2021/05/24 10:01:49;;;;;;;6.60;3.08;;;;;;;18.24;61.05;100538.06;1706605;84;21093;-54
2021/05/24 10:04:24;;;;;;;7.03;2.70;;;;;;;18.22;60.84;100544.17;1733583;82;21118;-54
2021/05/24 10:06:51;;;;;;;7.60;3.20;;;;;;;18.17;60.86;100538.63;1732383;82;20983;-54
2021/05/24 10:09:18;;;;;;;10.58;4.78;;;;;;;18.10;60.87;100543.27;1732564;82;21066;-54
2021/05/24 10:11:47;;;;;;;29.87;10.53;;;;;;;18.07;61.06;100546.41;1729358;82;21045;-54
2021/05/24 10:14:16;;;;;;;27.22;10.95;;;;;;;18.09;61.27;100544.34;1722759;82;21085;-54
2021/05/24 10:16:48;;;;;;;23.85;8.98;;;;;;;18.07;61.49;100545.89;1720954;82;21121;-54
2021/05/24 10:19:17;;;;;;;13.55;5.17;;;;;;;18.03;61.47;100553.28;1722311;83;21137;-55
2021/05/24 10:21:49;;;;;;;9.65;4.95;;;;;;;18.19;61.51;100556.73;1725788;81;21100;-55
2021/05/24 10:24:24;;;;;;;14.03;6.25;;;;;;;18.48;61.13;100553.27;1717479;83;21034;-55
2021/05/24 10:26:46;;;;;;;15.90;6.45;;;;;;;18.83;60.41;100572.84;1690317;83;21665;-54
2021/05/24 10:29:12;;;;;;;12.55;5.75;;;;;;;19.14;59.59;100569.91;1717366;83;21019;-55
2021/05/24 10:31:39;;;;;;;12.65;5.33;;;;;;;19.45;58.75;100575.02;1717287;83;21058;-54
2021/05/24 10:34:19;;;;;;;13.05;5.65;;;;;;;19.73;57.89;100580.27;1722410;82;21027;-55
2021/05/24 10:37:05;;;;;;;11.00;5.08;;;;;;;19.98;57.11;100570.88;1760568;81;21081;-55
2021/05/24 10:39:51;;;;;;;12.47;4.95;;;;;;;20.23;56.24;100577.38;1745802;81;21185;-55
2021/05/24 10:42:17;;;;;;;12.18;5.35;;;;;;;20.46;55.40;100584.11;1737635;82;21540;-55
2021/05/24 10:44:47;;;;;;;10.75;4.70;;;;;;;20.68;54.75;100577.52;1737620;82;20987;-55
2021/05/24 10:47:27;;;;;;;12.82;5.00;;;;;;;20.84;54.16;100582.16;1737506;82;21113;-55
2021/05/24 10:50:10;;;;;;;10.15;4.28;;;;;;;21.01;53.68;100586.24;1737666;82;21070;-55
2021/05/24 10:52:39;;;;;;;11.20;4.70;;;;;;;21.16;53.09;100589.25;1707732;84;20950;-54
2021/05/24 10:55:30;;;;;;;22.67;8.80;;;;;;;21.29;52.58;100583.55;1737232;82;21591;-54
2021/05/24 10:58:11;;;;;;;15.32;6.03;;;;;;;21.41;52.21;100585.66;1738694;82;21087;-55
2021/05/24 11:00:59;;;;;;;8.43;4.05;;;;;;;21.52;51.82;100588.81;1737309;81;21561;-55
2021/05/24 11:03:23;;;;;;;13.43;5.70;;;;;;;21.64;51.46;100592.77;1734405;82;21072;-54
2021/05/24 11:06:15;;;;;;;9.38;4.20;;;;;;;21.73;51.20;100598.59;1737238;82;21106;-54
2021/05/24 11:08:51;;;;;;;10.15;4.10;;;;;;;21.79;50.95;100609.23;1715678;83;21022;-55
2021/05/24 11:11:29;;;;;;;13.38;5.22;;;;;;;21.86;50.52;100609.09;1737818;82;20924;-55
2021/05/24 11:14:08;;;;;;;11.68;4.75;;;;;;;21.93;50.30;100620.06;1717310;83;20984;-55
2021/05/24 11:16:36;;;;;;;12.37;4.87;;;;;;;22.00;50.08;100619.89;1716856;83;21028;-54
2021/05/24 11:19:10;;;;;;;8.53;3.83;;;;;;;22.04;49.91;100616.97;1722749;82;21092;-55
2021/05/24 11:21:40;;;;;;;8.78;3.98;;;;;;;22.10;49.75;100615.96;1737161;82;20892;-55
2021/05/24 11:27:11;;;;;;;8.73;3.50;;;;;;;22.18;49.45;100618.25;1725127;81;21618;-55
2021/05/24 11:29:47;;;;;;;7.40;3.22;;;;;;;22.21;49.34;100629.11;1732818;81;21133;-55
2021/05/24 11:32:26;;;;;;;7.90;3.20;;;;;;;22.26;49.21;100630.54;1718901;80;21050;-55